Time;durP1;ratioP1;P1;durP2;ratioP2;P2;SDS_P1;SDS_P2;PMS_P1;PMS_P2;Temp;Humidity;BMP_temperature;BMP_pressure;BME280_temperature;BME280_humidity;BME280_pressure;Samples;Min_cycle;Max_cycle;Signal;HPM_P1;HPM_P2
2022/08/16 00:00:40;;;;;;;7.88;5.15;;;;;;;21.44;59.96;100071.47;5030133;28;20044;-53
2022/08/16 00:03:06;;;;;;;11.80;5.38;;;;;;;21.46;59.86;100080.13;5031313;28;20041;-51
2022/08/16 00:05:32;;;;;;;10.77;5.10;;;;;;;21.27;59.79;100056.81;5031614;28;20181;-54
2022/08/16 00:07:59;;;;;;;9.52;5.35;;;;;;;21.42;59.95;100084.81;5032299;28;20037;-51
2022/08/16 00:10:28;;;;;;;13.25;5.38;;;;;;;21.40;60.18;100089.38;5014770;28;20107;-51
2022/08/16 00:12:53;;;;;;;;;;;;;;;21.42;59.88;100091.91;5032133;28;20691;-52
2022/08/16 00:15:25;;;;;;;10.07;5.50;;;;;;;21.36;59.82;100085.25;5032676;28;19971;-53
2022/08/16 00:17:51;;;;;;;13.25;5.53;;;;;;;21.36;59.60;100093.19;5052649;28;20056;-49
2022/08/16 00:20:17;;;;;;;15.93;5.53;;;;;;;21.36;59.50;100093.19;5031456;28;20033;-49
2022/08/16 00:22:44;;;;;;;14.88;5.43;;;;;;;21.36;59.40;100087.91;5030495;28;20160;-55
2022/08/16 00:25:13;;;;;;;9.60;5.60;;;;;;;21.37;59.25;100086.94;5044948;28;20041;-50
2022/08/16 00:27:39;;;;;;;9.95;5.22;;;;;;;21.37;59.19;100088.75;5039639;28;20191;-51
2022/08/16 00:30:09;;;;;;;18.30;5.88;;;;;;;21.37;59.10;100086.09;5031812;28;20049;-49
2022/08/16 00:32:37;;;;;;;10.20;5.53;;;;;;;21.34;59.11;100083.69;5001483;28;20128;-50
2022/08/16 00:35:04;;;;;;;8.02;4.95;;;;;;;21.33;59.10;100088.13;5044458;28;20124;-50
2022/08/16 00:37:29;;;;;;;11.05;5.63;;;;;;;21.15;59.43;100055.06;5012008;28;20038;-52
2022/08/16 00:39:56;;;;;;;7.60;5.63;;;;;;;21.12;59.25;100065.84;5013479;28;20088;-49
2022/08/16 00:42:22;;;;;;;14.55;5.47;;;;;;;21.27;59.32;100085.06;5044733;28;20073;-50
2022/08/16 00:44:57;;;;;;;10.77;5.50;;;;;;;21.24;59.38;100080.88;5011331;28;20073;-52
2022/08/16 00:47:25;;;;;;;13.85;5.63;;;;;;;21.21;59.32;100088.16;5044149;28;20133;-50
2022/08/16 00:49:51;;;;;;;8.10;4.97;;;;;;;21.17;59.47;100089.34;5027517;28;20079;-53
2022/08/16 00:52:17;;;;;;;11.73;5.85;;;;;;;21.16;59.77;100085.00;5011968;28;20069;-51
2022/08/16 00:54:43;;;;;;;9.65;5.07;;;;;;;21.13;59.88;100083.41;5012368;28;20073;-53
2022/08/16 00:57:09;;;;;;;11.02;6.40;;;;;;;20.95;59.92;100056.47;5013260;28;20042;-54
2022/08/16 00:59:38;;;;;;;12.77;5.55;;;;;;;21.08;60.22;100085.53;5039819;28;20539;-51
2022/08/16 01:02:07;;;;;;;11.55;5.57;;;;;;;21.06;60.36;100084.78;5021183;28;20496;-52
2022/08/16 01:04:33;;;;;;;12.02;5.22;;;;;;;21.01;60.44;100093.03;5031481;28;20057;-49
2022/08/16 01:07:02;;;;;;;7.90;5.55;;;;;;;20.96;60.73;100086.38;5029935;28;20049;-52
2022/08/16 01:09:31;;;;;;;11.70;6.35;;;;;;;20.76;60.88;100064.00;5057623;28;20046;-49
2022/08/16 01:11:59;;;;;;;9.50;5.60;;;;;;;20.90;60.72;100081.53;4993517;28;20045;-52
2022/08/16 01:14:32;;;;;;;12.43;6.75;;;;;;;20.91;60.93;100096.44;5031154;28;20041;-51
2022/08/16 01:16:58;;;;;;;15.85;6.75;;;;;;;20.89;60.69;100100.97;5024455;28;20415;-48
2022/08/16 01:19:39;;;;;;;11.13;6.38;;;;;;;20.86;60.60;100096.78;5045583;28;20037;-48
2022/08/16 01:22:27;;;;;;;13.25;6.20;;;;;;;20.75;60.87;100085.25;5013579;28;20045;-50
2022/08/16 01:25:00;;;;;;;;;;;;;;;20.87;60.64;100106.41;5030445;28;20050;-49
2022/08/16 01:27:38;;;;;;;13.57;6.68;;;;;;;20.84;60.74;100103.94;5045080;28;20027;-49
2022/08/16 01:30:33;;;;;;;12.95;7.15;;;;;;;20.84;60.74;100101.31;5046200;28;20072;-50
2022/08/16 01:33:03;;;;;;;9.35;6.25;;;;;;;20.82;60.78;100105.88;5024907;28;20207;-51
2022/08/16 01:35:43;;;;;;;12.25;7.32;;;;;;;20.84;60.77;100103.94;5029513;28;20052;-51
2022/08/16 01:38:23;;;;;;;12.00;7.65;;;;;;;20.84;60.61;100108.38;5025261;28;20073;-51
2022/08/16 01:40:54;;;;;;;13.05;7.85;;;;;;;20.86;60.42;100107.34;5036809;28;20041;-52
2022/08/16 01:43:23;;;;;;;14.00;7.78;;;;;;;20.65;60.49;100069.19;5028089;28;20041;-53
2022/08/16 01:45:53;;;;;;;11.95;7.38;;;;;;;20.87;60.54;100111.69;5013425;28;20394;-52
2022/08/16 01:48:20;;;;;;;13.18;7.38;;;;;;;20.88;60.42;100112.53;5029062;28;20403;-50
2022/08/16 01:50:46;;;;;;;12.38;7.85;;;;;;;20.88;60.30;100109.88;5013524;28;20069;-48
2022/08/16 01:53:12;;;;;;;9.98;7.13;;;;;;;20.90;60.43;100107.97;5012388;28;20037;-54
2022/08/16 01:56:01;;;;;;;9.82;6.40;;;;;;;20.71;60.39;100079.34;5019314;28;20049;-52
2022/08/16 01:58:29;;;;;;;11.77;6.68;;;;;;;20.89;60.45;100108.91;5024436;28;20044;-53
2022/08/16 02:00:56;;;;;;;11.40;6.80;;;;;;;20.87;60.16;100106.41;5030252;28;20064;-54
2022/08/16 02:03:23;;;;;;;12.50;7.30;;;;;;;20.84;60.24;100111.03;5027468;28;20040;-53
2022/08/16 02:05:49;;;;;;;12.20;7.00;;;;;;;20.80;60.18;100112.19;5029518;28;20037;-52
2022/08/16 02:08:17;;;;;;;12.90;7.30;;;;;;;20.80;60.36;100104.28;5028233;28;20045;-54
2022/08/16 02:10:43;;;;;;;9.55;7.30;;;;;;;20.78;60.22;100107.00;5028731;28;20396;-51
2022/08/16 02:13:09;;;;;;;13.00;7.35;;;;;;;20.73;60.30;100110.97;5030384;28;20041;-52
2022/08/16 02:15:36;;;;;;;12.68;7.22;;;;;;;20.73;60.27;100112.63;5029900;28;20041;-50
2022/08/16 02:18:03;;;;;;;10.85;7.28;;;;;;;20.74;60.34;100116.13;5028506;28;20517;-52
2022/08/16 02:20:36;;;;;;;11.70;6.95;;;;;;;20.58;60.44;100089.06;5030387;28;20041;-51
2022/08/16 02:23:02;;;;;;;11.32;7.00;;;;;;;20.76;60.38;100113.38;5028829;28;20044;-50
2022/08/16 02:25:28;;;;;;;10.23;7.10;;;;;;;20.76;60.23;100113.38;5028877;28;20064;-54
2022/08/16 02:27:55;;;;;;;12.00;6.75;;;;;;;20.78;60.11;100116.78;5028094;28;20057;-50
2022/08/16 02:30:25;;;;;;;11.85;7.20;;;;;;;20.76;60.10;100108.94;5029727;28;20571;-49
2022/08/16 02:32:52;;;;;;;15.68;7.93;;;;;;;20.77;59.99;100120.34;5010475;28;20045;-52
2022/08/16 02:35:24;;;;;;;13.27;8.20;;;;;;;20.76;60.05;100119.50;5028839;28;20045;-51
2022/08/16 02:37:51;;;;;;;13.77;7.45;;;;;;;20.75;59.73;100107.25;5028123;28;20424;-48
2022/08/16 02:40:19;;;;;;;10.35;7.70;;;;;;;20.75;59.58;100119.59;5028658;28;20049;-52
2022/08/16 02:42:46;;;;;;;13.40;7.60;;;;;;;20.73;59.84;100124.19;5029731;28;20041;-51
2022/08/16 02:45:12;;;;;;;37.22;8.70;;;;;;;20.73;59.78;100118.88;5029641;28;20049;-52
2022/08/16 02:47:39;;;;;;;15.38;8.40;;;;;;;20.59;59.87;100099.53;5028246;28;20045;-53
2022/08/16 02:50:06;;;;;;;15.38;8.30;;;;;;;20.68;59.70;100117.38;5028905;28;20048;-49
2022/08/16 02:52:32;;;;;;;20.85;8.10;;;;;;;20.44;59.85;100086.53;5028967;28;20046;-52
2022/08/16 02:55:05;;;;;;;13.85;7.38;;;;;;;20.56;59.92;100118.25;5030017;28;20420;-50
2022/08/16 02:57:31;;;;;;;14.77;8.23;;;;;;;20.38;60.08;100090.44;5029649;28;20041;-53
2022/08/16 02:59:58;;;;;;;14.52;8.35;;;;;;;20.51;60.05;100120.34;5029131;28;20045;-53
2022/08/16 03:02:25;;;;;;;13.32;7.43;;;;;;;20.55;60.30;100126.28;5026657;28;20124;-50
2022/08/16 03:04:51;;;;;;;17.17;7.68;;;;;;;20.56;60.10;100120.03;5021125;28;20049;-52
2022/08/16 03:07:18;;;;;;;16.92;8.23;;;;;;;20.54;59.96;100132.50;5022366;28;20046;-48
2022/08/16 03:09:48;;;;;;;14.07;7.30;;;;;;;20.52;60.35;100124.66;5015979;28;20036;-51
2022/08/16 03:12:18;;;;;;;14.70;7.57;;;;;;;20.50;60.23;100123.94;5023922;28;20065;-54
2022/08/16 03:14:46;;;;;;;18.75;7.82;;;;;;;20.47;60.19;100125.94;5026006;28;20475;-54
2022/08/16 03:17:15;;;;;;;12.43;7.45;;;;;;;20.44;60.31;100129.66;5014375;28;20401;-53
2022/08/16 03:19:42;;;;;;;13.02;7.75;;;;;;;20.43;60.29;100132.38;5021828;28;20053;-49
2022/08/16 03:22:08;;;;;;;13.13;7.47;;;;;;;20.45;60.38;100133.97;5032614;28;20061;-47
2022/08/16 03:24:36;;;;;;;11.52;6.95;;;;;;;20.48;60.46;100130.28;5029813;28;20049;-50
2022/08/16 03:27:03;;;;;;;11.80;7.78;;;;;;;20.32;60.20;100109.34;5027967;28;20055;-49
2022/08/16 03:29:32;;;;;;;17.02;8.18;;;;;;;20.50;60.34;100139.78;5015891;28;20045;-50
2022/08/16 03:32:00;;;;;;;16.38;7.13;;;;;;;20.49;60.18;100134.59;5031913;28;20041;-50
2022/08/16 03:34:27;;;;;;;12.18;6.80;;;;;;;20.34;60.21;100109.25;5006676;28;20180;-51
2022/08/16 03:36:53;;;;;;;11.07;6.40;;;;;;;20.38;60.14;100110.72;5031678;28;20057;-52
2022/08/16 03:39:20;;;;;;;14.23;7.60;;;;;;;20.58;60.19;100139.25;5032329;28;20064;-51
2022/08/16 03:41:45;;;;;;;13.48;7.78;;;;;;;20.63;59.99;100135.34;5031649;28;20065;-54
2022/08/16 03:44:12;;;;;;;14.10;7.30;;;;;;;20.54;59.81;100116.66;5029488;28;20037;-52
2022/08/16 03:46:38;;;;;;;14.10;6.53;;;;;;;20.67;59.93;100144.75;5031863;28;20037;-48
2022/08/16 03:49:10;;;;;;;13.52;6.45;;;;;;;20.71;59.89;100146.25;5019615;28;20128;-54
2022/08/16 03:51:37;;;;;;;10.75;6.35;;;;;;;20.81;59.89;100143.81;5034494;28;20046;-50
2022/08/16 03:54:06;;;;;;;9.25;7.63;;;;;;;20.84;59.67;100146.25;5044652;28;20052;-52
2022/08/16 03:56:33;;;;;;;12.57;6.57;;;;;;;20.68;59.39;100104.16;5031471;28;20037;-52
2022/08/16 03:59:00;;;;;;;11.88;6.38;;;;;;;21.00;59.27;100138.94;5030942;28;20049;-51
2022/08/16 04:01:33;;;;;;;11.35;6.45;;;;;;;20.82;59.05;100102.38;5015182;28;20052;-57
2022/08/16 04:04:00;;;;;;;12.13;5.78;;;;;;;20.78;59.09;100090.34;5022115;28;20524;-51
2022/08/16 04:06:26;;;;;;;12.57;7.63;;;;;;;21.10;58.91;100139.13;5031476;28;20041;-53
2022/08/16 04:08:52;;;;;;;16.30;6.68;;;;;;;21.13;58.79;100142.44;5019356;28;20049;-53
2022/08/16 04:11:18;;;;;;;10.20;6.47;;;;;;;21.17;58.62;100135.13;5030620;28;20045;-53
2022/08/16 04:13:46;;;;;;;12.57;7.82;;;;;;;21.19;58.54;100138.53;5030100;28;20079;-49
2022/08/16 04:16:16;;;;;;;14.55;7.60;;;;;;;21.22;58.41;100140.09;5030463;28;20037;-53
2022/08/16 04:18:43;;;;;;;9.68;6.43;;;;;;;21.21;58.27;100133.97;5029496;28;20052;-52
2022/08/16 04:21:10;;;;;;;8.13;5.88;;;;;;;21.26;58.30;100137.13;5030913;28;20037;-53
2022/08/16 04:23:41;;;;;;;14.77;6.28;;;;;;;21.33;58.39;100137.53;5030916;28;20532;-53
2022/08/16 04:26:08;;;;;;;14.10;6.10;;;;;;;21.37;58.30;100137.22;5030933;28;20429;-50
2022/08/16 04:28:37;;;;;;;11.05;6.80;;;;;;;21.40;58.24;100139.66;5028160;28;20092;-53
2022/08/16 04:31:06;;;;;;;9.82;6.03;;;;;;;21.48;58.15;100142.56;5026275;28;20137;-48
2022/08/16 04:33:34;;;;;;;11.07;6.53;;;;;;;21.51;57.97;100138.88;5030279;28;20045;-50
2022/08/16 04:36:00;;;;;;;10.98;5.95;;;;;;;21.56;58.11;100140.22;5032250;28;20426;-51
2022/08/16 04:38:29;;;;;;;12.35;5.63;;;;;;;21.57;57.94;100146.34;5014616;28;20124;-52
2022/08/16 04:40:57;;;;;;;12.88;6.20;;;;;;;21.57;57.80;100141.06;5014163;28;20579;-52
2022/08/16 04:43:23;;;;;;;9.90;6.07;;;;;;;21.65;57.71;100144.00;5031621;28;20132;-50
2022/08/16 04:45:50;;;;;;;15.68;7.35;;;;;;;21.70;57.58;100147.16;5030400;28;20076;-51
2022/08/16 04:48:21;;;;;;;11.75;6.93;;;;;;;21.70;57.36;100146.31;5061701;28;20069;-51
2022/08/16 04:50:53;;;;;;;9.00;5.93;;;;;;;21.75;57.38;100150.31;5030651;28;20158;-50
2022/08/16 04:53:23;;;;;;;9.85;6.05;;;;;;;21.82;57.27;100145.44;5027683;28;20194;-53
2022/08/16 04:55:52;;;;;;;12.45;7.07;;;;;;;21.87;57.14;100144.13;5014233;28;20047;-51
2022/08/16 04:58:19;;;;;;;14.48;7.18;;;;;;;21.91;57.00;100145.59;5029967;28;20128;-50
2022/08/16 05:00:45;;;;;;;16.33;7.20;;;;;;;21.95;56.83;100143.59;5013802;28;20041;-53
2022/08/16 05:03:18;;;;;;;13.70;6.68;;;;;;;22.04;56.83;100147.34;5025962;28;20072;-51
2022/08/16 05:05:47;;;;;;;18.38;7.88;;;;;;;22.11;56.80;100141.50;5012052;28;20038;-52
2022/08/16 05:08:17;;;;;;;10.88;7.10;;;;;;;22.20;56.57;100151.38;5023460;28;20533;-53
2022/08/16 05:10:48;;;;;;;57.40;18.50;;;;;;;22.24;56.57;100144.06;5030263;28;20045;-53
2022/08/16 05:13:16;;;;;;;9.65;6.25;;;;;;;22.29;56.64;100133.97;5028911;28;20048;-53
2022/08/16 05:15:42;;;;;;;10.83;6.33;;;;;;;22.26;56.39;100108.53;5012069;28;20037;-49
2022/08/16 05:18:08;;;;;;;14.35;7.68;;;;;;;22.52;56.08;100137.50;5015568;28;20435;-52
2022/08/16 05:20:43;;;;;;;12.23;6.00;;;;;;;22.65;55.82;100139.13;5024358;28;20049;-50
2022/08/16 05:23:09;;;;;;;10.27;5.90;;;;;;;22.74;55.47;100148.19;5014502;28;20778;-51
2022/08/16 05:25:36;;;;;;;9.70;6.20;;;;;;;22.87;54.99;100145.44;5030319;28;20041;-53
2022/08/16 05:28:03;;;;;;;10.18;6.25;;;;;;;22.66;54.52;100095.72;5028260;28;20060;-49
2022/08/16 05:30:30;;;;;;;10.80;5.43;;;;;;;23.06;54.30;100145.69;5013932;28;20053;-51
2022/08/16 05:32:56;;;;;;;12.35;5.85;;;;;;;23.15;54.24;100145.81;5028983;28;20041;-51
2022/08/16 05:35:24;;;;;;;18.30;7.53;;;;;;;23.22;54.01;100140.84;5029951;28;20540;-51
2022/08/16 05:38:06;;;;;;;11.75;5.85;;;;;;;23.34;53.87;100141.69;5028319;28;20426;-50
2022/08/16 05:40:33;;;;;;;11.25;5.85;;;;;;;23.42;53.58;100141.91;5013648;28;20129;-52
2022/08/16 05:43:00;;;;;;;10.93;6.07;;;;;;;23.55;53.23;100138.16;5029830;28;20115;-49
2022/08/16 05:45:26;;;;;;;7.93;5.78;;;;;;;23.70;52.85;100148.53;5029828;28;20126;-50
2022/08/16 05:47:58;;;;;;;11.02;5.78;;;;;;;23.81;52.70;100132.56;5027941;28;20045;-52
2022/08/16 05:50:24;;;;;;;7.45;5.13;;;;;;;23.89;52.32;100140.75;5018269;28;20057;-49
2022/08/16 05:52:52;;;;;;;10.52;5.63;;;;;;;23.97;51.92;100147.09;5009825;28;20048;-55
2022/08/16 05:55:19;;;;;;;14.13;6.07;;;;;;;24.09;51.49;100145.25;5042990;28;20057;-54
2022/08/16 05:57:48;;;;;;;8.27;5.18;;;;;;;24.23;51.08;100150.31;5018894;28;20049;-51
2022/08/16 06:00:14;;;;;;;9.57;5.50;;;;;;;24.36;50.52;100145.63;5027926;28;20056;-51
2022/08/16 06:02:40;;;;;;;13.98;5.45;;;;;;;24.50;50.01;100141.81;5029863;28;20128;-48
2022/08/16 06:05:24;;;;;;;7.50;5.35;;;;;;;24.63;49.67;100134.50;5028353;28;20041;-48
2022/08/16 06:07:50;;;;;;;6.97;3.95;;;;;;;24.78;49.56;100138.47;5030449;28;20038;-48
2022/08/16 06:10:24;;;;;;;8.65;5.53;;;;;;;24.96;49.24;100140.56;5028859;28;20128;-48
2022/08/16 06:12:50;;;;;;;9.07;5.15;;;;;;;25.14;48.66;100142.47;5028837;28;20521;-47
2022/08/16 06:15:20;;;;;;;12.18;6.28;;;;;;;25.29;47.96;100141.09;5027954;28;20061;-50
2022/08/16 06:17:46;;;;;;;10.02;5.25;;;;;;;25.33;47.56;100108.91;5007743;28;20033;-48
2022/08/16 06:20:22;;;;;;;10.10;5.30;;;;;;;25.72;47.06;100137.31;5026869;28;20044;-48
2022/08/16 06:22:49;;;;;;;11.90;4.82;;;;;;;26.12;46.17;100135.38;5041640;28;20517;-52
2022/08/16 06:25:17;;;;;;;12.73;6.30;;;;;;;26.88;43.63;100132.78;5027831;28;20060;-50
2022/08/16 06:27:43;;;;;;;8.85;4.70;;;;;;;27.87;41.50;100145.34;5024634;28;20115;-49
2022/08/16 06:30:12;;;;;;;7.90;5.10;;;;;;;28.65;39.85;100139.16;5045732;28;20566;-52
2022/08/16 06:32:39;;;;;;;11.70;5.63;;;;;;;29.63;38.62;100137.00;5025880;28;20128;-55
2022/08/16 06:35:06;;;;;;;11.85;4.47;;;;;;;30.59;36.95;100140.81;5011226;28;20079;-49
2022/08/16 06:37:34;;;;;;;8.27;4.50;;;;;;;31.02;34.76;100137.72;5060933;28;20037;-49
2022/08/16 06:40:00;;;;;;;7.25;4.55;;;;;;;31.80;33.96;100135.00;5029952;28;20398;-50
2022/08/16 06:42:33;;;;;;;10.60;4.68;;;;;;;32.24;32.61;100139.78;5029639;28;20509;-51
2022/08/16 06:45:09;;;;;;;9.23;5.25;;;;;;;33.22;31.51;100136.94;5013648;28;20045;-52
2022/08/16 06:47:49;;;;;;;8.30;4.20;;;;;;;33.69;30.28;100099.59;5026545;28;20509;-52
2022/08/16 06:50:15;;;;;;;8.32;4.80;;;;;;;33.79;29.68;100132.47;5011929;28;20061;-50
2022/08/16 06:52:45;;;;;;;10.50;4.95;;;;;;;34.70;28.84;100133.53;5027664;28;20175;-56
2022/08/16 06:55:15;;;;;;;11.73;4.57;;;;;;;35.19;28.10;100133.41;5012424;28;20517;-54
2022/08/16 06:57:46;;;;;;;9.63;3.85;;;;;;;35.28;26.60;100143.84;5047716;28;20079;-56
2022/08/16 07:00:14;;;;;;;9.00;3.67;;;;;;;35.64;26.09;100127.34;5028346;28;20499;-54
2022/08/16 07:02:52;;;;;;;8.23;3.73;;;;;;;35.50;25.91;100136.44;5043051;28;20054;-58
2022/08/16 07:05:18;;;;;;;7.93;3.83;;;;;;;36.97;24.82;100128.25;5040504;28;20046;-59
2022/08/16 07:07:58;;;;;;;15.10;4.03;;;;;;;37.58;23.77;100139.56;5010776;28;20117;-57
2022/08/16 07:10:26;;;;;;;9.38;3.95;;;;;;;36.81;23.57;100134.97;5042318;28;20435;-57
2022/08/16 07:12:53;;;;;;;8.35;3.70;;;;;;;36.47;24.26;100144.16;5008791;28;20046;-52
2022/08/16 07:15:19;;;;;;;8.93;3.65;;;;;;;36.01;23.93;100136.81;5034988;28;20048;-59
2022/08/16 07:17:48;;;;;;;5.55;3.75;;;;;;;35.14;25.36;100128.59;5027131;28;20077;-58
2022/08/16 07:20:14;;;;;;;9.13;3.65;;;;;;;35.58;24.33;100130.03;5027662;28;20136;-58
2022/08/16 07:22:50;;;;;;;12.80;3.72;;;;;;;37.08;23.31;100116.75;5019668;28;20076;-57
2022/08/16 07:25:20;;;;;;;11.48;3.55;;;;;;;37.41;22.41;100141.06;5027631;28;20049;-57
2022/08/16 07:27:46;;;;;;;8.27;3.70;;;;;;;37.09;22.41;100129.31;5021113;28;20140;-55
2022/08/16 07:30:17;;;;;;;5.82;3.22;;;;;;;38.01;21.44;100107.13;5027609;28;20045;-57
2022/08/16 07:32:43;;;;;;;7.30;3.63;;;;;;;38.24;21.35;100131.00;5024369;28;20041;-58
2022/08/16 07:35:09;;;;;;;6.07;3.90;;;;;;;38.94;20.88;100130.56;5023867;28;20468;-57
2022/08/16 07:37:35;;;;;;;12.30;3.97;;;;;;;38.89;20.19;100132.31;5022513;28;20049;-59
2022/08/16 07:40:19;;;;;;;10.02;4.15;;;;;;;39.29;20.00;100129.97;5027199;28;20049;-58
2022/08/16 07:42:45;;;;;;;9.20;3.75;;;;;;;40.11;19.63;100122.94;5023445;28;20045;-59
2022/08/16 07:45:14;;;;;;;8.00;4.18;;;;;;;41.57;18.72;100151.97;5023946;28;20068;-57
2022/08/16 07:47:45;;;;;;;8.73;4.32;;;;;;;41.54;18.39;100136.91;5028642;28;20103;-58
2022/08/16 07:50:13;;;;;;;5.65;3.60;;;;;;;39.98;18.87;100153.16;5029024;28;20038;-58
2022/08/16 07:52:40;;;;;;;10.98;3.65;;;;;;;38.47;20.31;100136.69;5052158;28;20167;-57
2022/08/16 07:55:07;;;;;;;7.20;3.72;;;;;;;38.51;20.30;100143.34;5031206;28;20052;-59
2022/08/16 07:57:33;;;;;;;5.50;3.88;;;;;;;37.81;21.29;100133.56;5026925;28;20092;-62
2022/08/16 07:59:59;;;;;;;7.68;3.60;;;;;;;37.62;21.24;100143.50;5031097;28;20077;-60
2022/08/16 08:02:27;;;;;;;5.82;3.35;;;;;;;37.17;21.84;100135.31;5031049;28;20045;-59
2022/08/16 08:04:55;;;;;;;13.90;3.60;;;;;;;37.07;21.77;100115.91;5006507;28;20076;-60
2022/08/16 08:07:22;;;;;;;6.30;3.58;;;;;;;38.19;21.07;100123.50;5014067;28;20064;-59
2022/08/16 08:09:50;;;;;;;3.90;3.50;;;;;;;38.24;20.92;100131.84;5012428;28;20068;-62
2022/08/16 08:12:18;;;;;;;4.80;3.63;;;;;;;37.80;21.08;100126.47;5030403;28;20053;-58
2022/08/16 08:14:45;;;;;;;;;;;;;;;38.12;21.33;100128.16;5031260;28;20054;-58
2022/08/16 08:17:12;;;;;;;4.38;3.50;;;;;;;38.18;20.92;100127.28;5030872;28;19949;-59
2022/08/16 08:19:40;;;;;;;6.65;3.80;;;;;;;37.86;21.37;100114.75;5029334;28;20134;-56
2022/08/16 08:22:08;;;;;;;11.15;4.05;;;;;;;38.47;20.83;100120.38;5029809;28;20056;-60
2022/08/16 08:24:45;;;;;;;13.88;4.28;;;;;;;39.47;20.07;100137.28;5026494;28;20647;-51
2022/08/16 08:27:13;;;;;;;8.25;3.78;;;;;;;39.20;19.92;100115.00;5004854;28;20076;-55
2022/08/16 08:29:40;;;;;;;5.65;3.30;;;;;;;38.57;20.08;100123.41;5030905;28;20080;-57
2022/08/16 08:32:07;;;;;;;9.27;3.80;;;;;;;38.07;20.50;100112.53;5030532;28;20048;-58
2022/08/16 08:34:33;;;;;;;3.92;3.22;;;;;;;38.01;20.86;100121.56;5033119;28;20167;-58
2022/08/16 08:36:59;;;;;;;4.45;3.47;;;;;;;37.27;21.20;100103.13;5010186;28;20120;-62
2022/08/16 08:39:33;;;;;;;4.53;3.30;;;;;;;37.53;20.82;100113.03;5027058;28;20265;-59
2022/08/16 08:42:01;;;;;;;4.85;3.67;;;;;;;37.70;20.99;100116.94;5029887;28;20052;-61
2022/08/16 08:44:27;;;;;;;9.02;3.70;;;;;;;37.54;21.04;100113.84;5030309;28;20061;-59
2022/08/16 08:46:56;;;;;;;7.00;3.80;;;;;;;37.63;21.07;100101.75;5030571;28;20045;-59
2022/08/16 08:49:23;;;;;;;7.00;3.83;;;;;;;37.00;21.69;100101.56;5026787;28;20046;-59
2022/08/16 08:51:49;;;;;;;4.82;4.07;;;;;;;36.88;21.73;100105.97;5029989;28;20053;-59
2022/08/16 08:54:15;;;;;;;7.15;3.80;;;;;;;37.09;22.04;100103.03;5028297;28;20049;-60
2022/08/16 08:56:43;;;;;;;5.22;3.90;;;;;;;38.58;20.75;100096.00;5029137;28;20064;-58
2022/08/16 08:59:22;;;;;;;7.13;3.97;;;;;;;38.31;20.66;100074.72;5029203;28;20099;-60
2022/08/16 09:01:50;;;;;;;8.77;4.35;;;;;;;38.39;20.97;100102.44;5027178;28;20049;-62
2022/08/16 09:04:17;;;;;;;7.13;4.50;;;;;;;39.85;19.94;100107.88;5028630;28;20448;-58
2022/08/16 09:06:44;;;;;;;;;;;;;;;41.02;18.91;100106.03;5013943;28;20082;-59
2022/08/16 09:09:13;;;;;;;12.63;4.40;;;;;;;42.14;17.68;100111.75;5012636;28;19982;-58
2022/08/16 09:11:43;;;;;;;7.28;4.25;;;;;;;42.20;17.76;100106.13;5029573;28;20383;-58
2022/08/16 09:14:10;;;;;;;8.65;4.32;;;;;;;42.40;17.41;100113.03;5035712;28;20056;-58
2022/08/16 09:16:36;;;;;;;7.28;4.90;;;;;;;42.45;17.52;100113.91;5010435;28;20052;-58
2022/08/16 09:19:02;;;;;;;8.07;3.50;;;;;;;43.70;16.75;100112.28;5028179;28;20136;-58
2022/08/16 09:21:28;;;;;;;8.70;4.80;;;;;;;43.88;16.36;100109.19;5007134;28;20398;-58
2022/08/16 09:23:54;;;;;;;7.72;4.57;;;;;;;43.50;16.48;100121.09;5005919;28;20041;-58
2022/08/16 09:26:20;;;;;;;10.25;4.70;;;;;;;41.15;18.20;100094.88;5030378;28;20045;-58
2022/08/16 09:28:47;;;;;;;6.60;4.28;;;;;;;40.45;18.74;100108.56;5028463;28;20049;-60
2022/08/16 09:31:19;;;;;;;8.85;4.68;;;;;;;40.35;19.28;100097.44;5027156;28;20041;-60
2022/08/16 09:33:46;;;;;;;7.72;4.75;;;;;;;41.49;18.49;100101.31;5027765;28;20050;-58
2022/08/16 09:36:12;;;;;;;11.77;4.90;;;;;;;42.83;17.62;100115.03;5030208;28;20037;-59
2022/08/16 09:38:39;;;;;;;5.75;4.72;;;;;;;43.72;16.85;100115.56;5030350;28;20040;-58
2022/08/16 09:41:09;;;;;;;6.57;3.88;;;;;;;42.98;16.68;100080.47;5030663;28;20068;-59
2022/08/16 09:43:35;;;;;;;5.93;4.28;;;;;;;41.97;17.01;100070.78;5012393;28;20037;-61
2022/08/16 09:46:04;;;;;;;5.55;4.50;;;;;;;42.17;16.96;100098.44;5029606;28;20123;-59
2022/08/16 09:48:31;;;;;;;7.32;4.40;;;;;;;42.26;17.20;100088.72;5028207;28;20524;-60
2022/08/16 09:50:57;;;;;;;11.88;4.70;;;;;;;43.12;16.15;100102.88;5026989;28;20069;-59
2022/08/16 09:53:23;;;;;;;5.78;4.28;;;;;;;43.96;15.57;100095.03;5012830;28;20152;-57
2022/08/16 09:55:52;;;;;;;7.72;4.38;;;;;;;43.69;15.18;100103.25;5030231;28;20041;-59
2022/08/16 09:58:19;;;;;;;4.97;4.40;;;;;;;42.26;16.44;100102.41;5025385;28;20184;-61
2022/08/16 10:00:45;;;;;;;7.70;4.45;;;;;;;42.39;16.59;100090.34;5026739;28;20594;-60
2022/08/16 10:03:11;;;;;;;7.32;4.28;;;;;;;42.83;15.81;100099.44;5027680;28;20132;-59
2022/08/16 10:05:38;;;;;;;5.90;4.43;;;;;;;41.79;16.62;100090.09;5028818;28;20049;-61
2022/08/16 10:08:05;;;;;;;7.20;4.32;;;;;;;41.05;17.18;100086.47;5011424;28;20045;-60
2022/08/16 10:10:31;;;;;;;;;;;;;;;42.09;16.60;100092.53;5024778;28;20049;-60
2022/08/16 10:13:13;;;;;;;9.38;4.38;;;;;;;41.54;16.81;100089.66;5025452;28;19917;-60
2022/08/16 10:15:43;;;;;;;8.07;4.43;;;;;;;41.54;17.16;100085.03;5024282;28;20041;-60
2022/08/16 10:18:11;;;;;;;9.02;4.38;;;;;;;43.17;16.30;100080.19;5024541;28;20041;-60
2022/08/16 10:20:44;;;;;;;5.13;4.63;;;;;;;44.39;15.18;100083.00;5026121;28;20053;-56
2022/08/16 10:23:12;;;;;;;5.75;4.50;;;;;;;43.61;15.46;100081.78;5023709;28;20052;-60
2022/08/16 10:25:42;;;;;;;6.13;4.63;;;;;;;42.52;15.78;100068.09;5026350;28;20037;-61
2022/08/16 10:28:08;;;;;;;5.95;4.38;;;;;;;41.91;16.89;100074.50;5024478;28;20588;-60
2022/08/16 10:30:36;;;;;;;7.63;4.82;;;;;;;41.56;16.88;100052.00;5023393;28;20076;-59
2022/08/16 10:33:03;;;;;;;6.65;4.10;;;;;;;40.39;17.67;100079.53;5024986;28;20072;-62
2022/08/16 10:35:29;;;;;;;6.97;3.78;;;;;;;40.73;17.63;100071.56;5010128;28;20045;-59
2022/08/16 10:37:55;;;;;;;4.55;4.15;;;;;;;40.70;17.98;100072.91;5025359;28;21414;-56
2022/08/16 10:40:21;;;;;;;5.05;4.13;;;;;;;40.40;17.79;100064.00;5023101;28;20395;-59
2022/08/16 10:42:48;;;;;;;6.28;3.72;;;;;;;41.23;17.45;100075.41;5026116;28;20045;-58
2022/08/16 10:45:15;;;;;;;4.32;3.92;;;;;;;40.18;18.32;100072.75;5028725;28;20048;-59
2022/08/16 10:47:40;;;;;;;5.65;4.35;;;;;;;39.81;18.64;100074.00;5029657;28;20041;-57
2022/08/16 10:50:07;;;;;;;7.22;4.30;;;;;;;39.64;18.57;100060.19;5027877;28;20049;-59
2022/08/16 10:52:33;;;;;;;7.25;4.28;;;;;;;40.39;18.14;100044.09;5039651;28;20042;-60
2022/08/16 10:54:59;;;;;;;5.97;4.40;;;;;;;40.55;17.85;100032.47;5029249;28;20048;-59
2022/08/16 10:57:26;;;;;;;6.65;4.20;;;;;;;40.56;18.02;100072.31;5028437;28;20052;-59
2022/08/16 10:59:53;;;;;;;9.80;5.10;;;;;;;41.03;17.54;100058.59;5026496;28;20030;-58
2022/08/16 11:02:21;;;;;;;5.95;5.10;;;;;;;43.10;16.40;100063.97;5023205;28;20509;-60
2022/08/16 11:04:48;;;;;;;5.90;4.10;;;;;;;42.40;16.84;100061.09;5059281;28;20097;-58
2022/08/16 11:07:14;;;;;;;4.88;4.47;;;;;;;42.95;16.66;100053.63;5010119;28;20046;-58
2022/08/16 11:09:40;;;;;;;4.75;4.35;;;;;;;44.12;16.00;100066.63;5024434;28;20056;-58
2022/08/16 11:12:06;;;;;;;8.50;3.85;;;;;;;43.83;15.70;100062.53;5014759;28;20072;-59
2022/08/16 11:14:33;;;;;;;;;;;;;;;43.17;16.29;100061.88;5029405;28;20048;-58
2022/08/16 11:17:02;;;;;;;4.65;3.58;;;;;;;42.07;16.86;100049.09;5025277;28;20312;-52
2022/08/16 11:19:29;;;;;;;6.50;4.13;;;;;;;38.78;19.47;100046.88;5025626;28;20087;-58
2022/08/16 11:21:55;;;;;;;6.83;4.50;;;;;;;38.85;19.70;100057.63;5028742;28;20060;-59
2022/08/16 11:24:21;;;;;;;6.85;4.30;;;;;;;39.24;19.33;100051.75;5015957;28;20041;-60
2022/08/16 11:26:49;;;;;;;5.38;4.20;;;;;;;39.43;19.02;100038.09;5028387;28;20085;-62